sensor_id;sensor_type;location;lat;lon;timestamp;pressure;altitude;pressure_sealevel;temperature;humidity
14612;BME280;7392;52.078;11.650;2023-06-10T00:00:12;100907.81;;;18.31;74.44
14612;BME280;7392;52.078;11.650;2023-06-10T00:02:43;100915.94;;;18.29;74.64
14612;BME280;7392;52.078;11.650;2023-06-10T00:05:11;100919.63;;;18.25;74.93
14612;BME280;7392;52.078;11.650;2023-06-10T00:07:39;100926.06;;;18.21;75.05
14612;BME280;7392;52.078;11.650;2023-06-10T00:10:08;100912.78;;;18.15;75.47
14612;BME280;7392;52.078;11.650;2023-06-10T00:12:37;100924.56;;;18.11;76.03
14612;BME280;7392;52.078;11.650;2023-06-10T00:15:06;100930.09;;;18.06;76.24
14612;BME280;7392;52.078;11.650;2023-06-10T00:17:34;100929.34;;;18.01;76.61
14612;BME280;7392;52.078;11.650;2023-06-10T00:20:08;100922.31;;;17.97;76.75
14612;BME280;7392;52.078;11.650;2023-06-10T00:22:38;100935.84;;;17.94;77.21
14612;BME280;7392;52.078;11.650;2023-06-10T00:25:09;100921.66;;;17.89;77.50
14612;BME280;7392;52.078;11.650;2023-06-10T00:27:37;100921.75;;;17.84;77.64
14612;BME280;7392;52.078;11.650;2023-06-10T00:30:06;100916.50;;;17.80;78.08
14612;BME280;7392;52.078;11.650;2023-06-10T00:32:34;100914.88;;;17.74;78.53
14612;BME280;7392;52.078;11.650;2023-06-10T00:35:03;100916.81;;;17.69;78.55
14612;BME280;7392;52.078;11.650;2023-06-10T00:37:33;100920.63;;;17.62;79.04
14612;BME280;7392;52.078;11.650;2023-06-10T00:40:02;100921.69;;;17.56;79.50
14612;BME280;7392;52.078;11.650;2023-06-10T00:42:31;100928.88;;;17.54;79.94
14612;BME280;7392;52.078;11.650;2023-06-10T00:44:59;100925.47;;;17.47;80.17
14612;BME280;7392;52.078;11.650;2023-06-10T00:47:27;100936.41;;;17.41;80.44
14612;BME280;7392;52.078;11.650;2023-06-10T00:49:55;100938.31;;;17.37;81.03
14612;BME280;7392;52.078;11.650;2023-06-10T00:52:26;100933.06;;;17.33;81.28
14612;BME280;7392;52.078;11.650;2023-06-10T00:54:56;100942.16;;;17.27;81.64
14612;BME280;7392;52.078;11.650;2023-06-10T00:57:25;100930.66;;;17.22;81.85
14612;BME280;7392;52.078;11.650;2023-06-10T00:59:54;100937.06;;;17.16;82.40
14612;BME280;7392;52.078;11.650;2023-06-10T01:02:21;100935.44;;;17.11;82.44
14612;BME280;7392;52.078;11.650;2023-06-10T01:04:49;100937.34;;;17.06;82.89
14612;BME280;7392;52.078;11.650;2023-06-10T01:07:23;100936.56;;;17.02;83.17
14612;BME280;7392;52.078;11.650;2023-06-10T01:09:58;100935.00;;;16.93;83.45
14612;BME280;7392;52.078;11.650;2023-06-10T01:12:31;100954.75;;;16.89;83.96
14612;BME280;7392;52.078;11.650;2023-06-10T01:15:01;100951.28;;;16.84;84.25
14612;BME280;7392;52.078;11.650;2023-06-10T01:17:30;100963.88;;;16.80;84.27
14612;BME280;7392;52.078;11.650;2023-06-10T01:19:58;100953.28;;;16.76;84.80
14612;BME280;7392;52.078;11.650;2023-06-10T01:22:29;100951.56;;;16.72;84.74
14612;BME280;7392;52.078;11.650;2023-06-10T01:24:58;100946.38;;;16.66;85.20
14612;BME280;7392;52.078;11.650;2023-06-10T01:27:30;100961.66;;;16.62;85.46
14612;BME280;7392;52.078;11.650;2023-06-10T01:30:04;100960.00;;;16.56;85.23
14612;BME280;7392;52.078;11.650;2023-06-10T01:32:37;100953.00;;;16.49;85.83
14612;BME280;7392;52.078;11.650;2023-06-10T01:35:08;100962.06;;;16.45;86.51
14612;BME280;7392;52.078;11.650;2023-06-10T01:37:38;100968.41;;;16.39;86.63
14612;BME280;7392;52.078;11.650;2023-06-10T01:40:08;100969.38;;;16.37;87.25
14612;BME280;7392;52.078;11.650;2023-06-10T01:42:37;100954.28;;;16.33;87.41
14612;BME280;7392;52.078;11.650;2023-06-10T01:45:06;100955.28;;;16.29;87.17
14612;BME280;7392;52.078;11.650;2023-06-10T01:47:34;100950.84;;;16.26;87.36
14612;BME280;7392;52.078;11.650;2023-06-10T01:50:01;100942.88;;;16.24;87.92
14612;BME280;7392;52.078;11.650;2023-06-10T01:52:29;100944.72;;;16.21;88.38
14612;BME280;7392;52.078;11.650;2023-06-10T01:54:58;100952.84;;;16.18;88.19
14612;BME280;7392;52.078;11.650;2023-06-10T01:57:25;100955.59;;;16.15;88.48
14612;BME280;7392;52.078;11.650;2023-06-10T01:59:53;100947.59;;;16.12;88.75
14612;BME280;7392;52.078;11.650;2023-06-10T02:02:20;100948.56;;;16.09;88.93
14612;BME280;7392;52.078;11.650;2023-06-10T02:04:49;100953.09;;;16.05;89.17
14612;BME280;7392;52.078;11.650;2023-06-10T02:07:18;100969.28;;;16.01;89.10
14612;BME280;7392;52.078;11.650;2023-06-10T02:09:46;100962.19;;;15.97;89.26
14612;BME280;7392;52.078;11.650;2023-06-10T02:12:15;100955.13;;;15.94;89.84
14612;BME280;7392;52.078;11.650;2023-06-10T02:14:43;100959.69;;;15.89;89.93
14612;BME280;7392;52.078;11.650;2023-06-10T02:17:11;100954.44;;;15.84;90.29
14612;BME280;7392;52.078;11.650;2023-06-10T02:19:41;100968.78;;;15.82;90.72
14612;BME280;7392;52.078;11.650;2023-06-10T02:22:09;100970.63;;;15.78;90.92
14612;BME280;7392;52.078;11.650;2023-06-10T02:24:37;100974.25;;;15.74;90.98
14612;BME280;7392;52.078;11.650;2023-06-10T02:27:05;100971.63;;;15.71;91.13
14612;BME280;7392;52.078;11.650;2023-06-10T02:29:35;100976.16;;;15.67;91.15
14612;BME280;7392;52.078;11.650;2023-06-10T02:32:04;100975.34;;;15.64;91.51
14612;BME280;7392;52.078;11.650;2023-06-10T02:34:35;100986.13;;;15.59;91.36
14612;BME280;7392;52.078;11.650;2023-06-10T02:37:05;100986.22;;;15.55;91.54
14612;BME280;7392;52.078;11.650;2023-06-10T02:39:33;100983.59;;;15.51;92.03
14612;BME280;7392;52.078;11.650;2023-06-10T02:42:02;100979.19;;;15.47;92.15
14612;BME280;7392;52.078;11.650;2023-06-10T02:44:30;100979.28;;;15.44;92.36
14612;BME280;7392;52.078;11.650;2023-06-10T02:46:59;100987.38;;;15.41;92.50
14612;BME280;7392;52.078;11.650;2023-06-10T02:49:27;100993.63;;;15.39;92.68
14612;BME280;7392;52.078;11.650;2023-06-10T02:51:56;100975.00;;;15.34;92.72
14612;BME280;7392;52.078;11.650;2023-06-10T02:54:23;100982.16;;;15.32;93.25
14612;BME280;7392;52.078;11.650;2023-06-10T02:56:53;100978.66;;;15.28;93.42
14612;BME280;7392;52.078;11.650;2023-06-10T02:59:24;100986.78;;;15.25;93.79
14612;BME280;7392;52.078;11.650;2023-06-10T03:01:53;100995.69;;;15.24;93.73
14612;BME280;7392;52.078;11.650;2023-06-10T03:04:23;100987.69;;;15.23;93.78
14612;BME280;7392;52.078;11.650;2023-06-10T03:06:59;100983.28;;;15.20;94.01
14612;BME280;7392;52.078;11.650;2023-06-10T03:09:32;100977.97;;;15.19;94.00
14612;BME280;7392;52.078;11.650;2023-06-10T03:12:02;100978.88;;;15.16;94.00
14612;BME280;7392;52.078;11.650;2023-06-10T03:14:34;100980.75;;;15.12;94.48
14612;BME280;7392;52.078;11.650;2023-06-10T03:17:04;100986.13;;;15.09;94.72
14612;BME280;7392;52.078;11.650;2023-06-10T03:19:34;100984.41;;;15.07;94.96
14612;BME280;7392;52.078;11.650;2023-06-10T03:22:08;100975.50;;;15.05;94.92
14612;BME280;7392;52.078;11.650;2023-06-10T03:24:49;100991.63;;;15.02;95.26
14612;BME280;7392;52.078;11.650;2023-06-10T03:27:18;100986.31;;;14.99;95.42
14612;BME280;7392;52.078;11.650;2023-06-10T03:29:49;100980.94;;;15.00;95.19
14612;BME280;7392;52.078;11.650;2023-06-10T03:32:17;100991.69;;;14.99;95.58
14612;BME280;7392;52.078;11.650;2023-06-10T03:34:46;100982.81;;;14.96;95.75
14612;BME280;7392;52.078;11.650;2023-06-10T03:37:14;100990.81;;;14.96;95.62
14612;BME280;7392;52.078;11.650;2023-06-10T03:39:45;100984.59;;;14.94;96.27
14612;BME280;7392;52.078;11.650;2023-06-10T03:42:13;100987.25;;;14.94;96.31
14612;BME280;7392;52.078;11.650;2023-06-10T03:44:40;100990.88;;;14.93;96.42
14612;BME280;7392;52.078;11.650;2023-06-10T03:47:08;101007.81;;;14.92;96.84
14612;BME280;7392;52.078;11.650;2023-06-10T03:49:36;101003.38;;;14.91;96.83
14612;BME280;7392;52.078;11.650;2023-06-10T03:52:06;100997.09;;;14.92;96.81
14612;BME280;7392;52.078;11.650;2023-06-10T03:54:34;100984.66;;;14.91;97.00
14612;BME280;7392;52.078;11.650;2023-06-10T03:57:02;101000.72;;;14.91;97.04
14612;BME280;7392;52.078;11.650;2023-06-10T03:59:30;101007.84;;;14.89;97.24
14612;BME280;7392;52.078;11.650;2023-06-10T04:01:58;101001.63;;;14.89;97.64
14612;BME280;7392;52.078;11.650;2023-06-10T04:04:26;101008.78;;;14.88;97.56
14612;BME280;7392;52.078;11.650;2023-06-10T04:06:54;101006.97;;;14.89;97.76
14612;BME280;7392;52.078;11.650;2023-06-10T04:09:23;101014.13;;;14.88;98.11
14612;BME280;7392;52.078;11.650;2023-06-10T04:11:51;101015.88;;;14.89;98.47
14612;BME280;7392;52.078;11.650;2023-06-10T04:14:19;101009.66;;;14.89;98.65
14612;BME280;7392;52.078;11.650;2023-06-10T04:16:47;101016.78;;;14.90;98.72
14612;BME280;7392;52.078;11.650;2023-06-10T04:19:14;101010.47;;;14.92;98.96
14612;BME280;7392;52.078;11.650;2023-06-10T04:21:42;101016.75;;;14.93;98.74
14612;BME280;7392;52.078;11.650;2023-06-10T04:24:10;101009.56;;;14.95;99.09
14612;BME280;7392;52.078;11.650;2023-06-10T04:26:39;101017.56;;;14.96;99.08
14612;BME280;7392;52.078;11.650;2023-06-10T04:29:07;101023.78;;;14.99;99.03
14612;BME280;7392;52.078;11.650;2023-06-10T04:31:35;101026.41;;;15.00;99.10
14612;BME280;7392;52.078;11.650;2023-06-10T04:34:03;101021.03;;;15.03;98.90
14612;BME280;7392;52.078;11.650;2023-06-10T04:36:31;101020.97;;;15.05;98.88
14612;BME280;7392;52.078;11.650;2023-06-10T04:38:59;101012.06;;;15.06;98.80
14612;BME280;7392;52.078;11.650;2023-06-10T04:41:30;101028.09;;;15.07;98.83
14612;BME280;7392;52.078;11.650;2023-06-10T04:43:58;101024.44;;;15.11;98.86
14612;BME280;7392;52.078;11.650;2023-06-10T04:46:26;101026.19;;;15.14;98.83
14612;BME280;7392;52.078;11.650;2023-06-10T04:48:54;101027.91;;;15.17;98.68
14612;BME280;7392;52.078;11.650;2023-06-10T04:51:22;101020.78;;;15.17;99.07
14612;BME280;7392;52.078;11.650;2023-06-10T04:53:49;101012.72;;;15.20;98.85
14612;BME280;7392;52.078;11.650;2023-06-10T04:56:17;101022.47;;;15.23;98.77
14612;BME280;7392;52.078;11.650;2023-06-10T04:58:45;101011.72;;;15.26;98.89
14612;BME280;7392;52.078;11.650;2023-06-10T05:01:14;101010.75;;;15.30;99.01
14612;BME280;7392;52.078;11.650;2023-06-10T05:03:41;101006.22;;;15.33;99.06
14612;BME280;7392;52.078;11.650;2023-06-10T05:06:09;101005.25;;;15.39;99.30
14612;BME280;7392;52.078;11.650;2023-06-10T05:08:36;101013.16;;;15.44;99.31
14612;BME280;7392;52.078;11.650;2023-06-10T05:11:04;101011.28;;;15.49;99.25
14612;BME280;7392;52.078;11.650;2023-06-10T05:13:32;101015.69;;;15.55;99.08
14612;BME280;7392;52.078;11.650;2023-06-10T05:16:00;101014.66;;;15.62;98.77
14612;BME280;7392;52.078;11.650;2023-06-10T05:18:29;101014.56;;;15.66;98.50
14612;BME280;7392;52.078;11.650;2023-06-10T05:20:57;101016.25;;;15.70;97.81
14612;BME280;7392;52.078;11.650;2023-06-10T05:23:25;101013.47;;;15.78;97.84
14612;BME280;7392;52.078;11.650;2023-06-10T05:25:53;101018.66;;;15.86;96.77
14612;BME280;7392;52.078;11.650;2023-06-10T05:28:21;101019.44;;;15.93;96.33
14612;BME280;7392;52.078;11.650;2023-06-10T05:30:48;101016.66;;;15.99;95.86
14612;BME280;7392;52.078;11.650;2023-06-10T05:33:16;101025.41;;;16.05;95.58
14612;BME280;7392;52.078;11.650;2023-06-10T05:35:45;101028.88;;;16.11;95.51
14612;BME280;7392;52.078;11.650;2023-06-10T05:38:13;101030.59;;;16.15;95.11
14612;BME280;7392;52.078;11.650;2023-06-10T05:40:41;101039.41;;;16.20;94.89
14612;BME280;7392;52.078;11.650;2023-06-10T05:43:08;101042.03;;;16.24;94.57
14612;BME280;7392;52.078;11.650;2023-06-10T05:45:37;101035.63;;;16.30;94.20
14612;BME280;7392;52.078;11.650;2023-06-10T05:48:06;101030.13;;;16.36;94.06
14612;BME280;7392;52.078;11.650;2023-06-10T05:50:34;101031.81;;;16.42;93.97
14612;BME280;7392;52.078;11.650;2023-06-10T05:53:07;101032.59;;;16.47;93.34
14612;BME280;7392;52.078;11.650;2023-06-10T05:55:41;101030.75;;;16.49;92.79
14612;BME280;7392;52.078;11.650;2023-06-10T05:58:09;101035.09;;;16.55;92.87
14612;BME280;7392;52.078;11.650;2023-06-10T06:00:38;101028.75;;;16.59;92.89
14612;BME280;7392;52.078;11.650;2023-06-10T06:03:07;101046.47;;;16.66;93.09
14612;BME280;7392;52.078;11.650;2023-06-10T06:05:36;101049.94;;;16.70;92.52
14612;BME280;7392;52.078;11.650;2023-06-10T06:08:04;101040.03;;;16.73;92.40
14612;BME280;7392;52.078;11.650;2023-06-10T06:10:33;101029.25;;;16.76;91.83
14612;BME280;7392;52.078;11.650;2023-06-10T06:13:02;101030.00;;;16.81;92.59
14612;BME280;7392;52.078;11.650;2023-06-10T06:15:29;101043.25;;;16.89;92.65
14612;BME280;7392;52.078;11.650;2023-06-10T06:17:57;101040.47;;;16.94;92.07
14612;BME280;7392;52.078;11.650;2023-06-10T06:20:25;101038.59;;;16.97;92.01
14612;BME280;7392;52.078;11.650;2023-06-10T06:22:52;101045.56;;;17.05;92.08
14612;BME280;7392;52.078;11.650;2023-06-10T06:25:20;101044.56;;;17.10;92.13
14612;BME280;7392;52.078;11.650;2023-06-10T06:27:49;101046.16;;;17.17;92.26
14612;BME280;7392;52.078;11.650;2023-06-10T06:30:16;101034.38;;;17.23;91.88
14612;BME280;7392;52.078;11.650;2023-06-10T06:32:45;101058.41;;;17.29;91.58
14612;BME280;7392;52.078;11.650;2023-06-10T06:35:13;101062.72;;;17.35;91.12
14612;BME280;7392;52.078;11.650;2023-06-10T06:37:40;101040.31;;;17.37;90.77
14612;BME280;7392;52.078;11.650;2023-06-10T06:40:18;101061.72;;;17.41;90.18
14612;BME280;7392;52.078;11.650;2023-06-10T06:42:46;101057.22;;;17.41;89.96
14612;BME280;7392;52.078;11.650;2023-06-10T06:45:39;101051.66;;;17.47;90.28
14612;BME280;7392;52.078;11.650;2023-06-10T06:48:06;101059.69;;;17.49;89.86
14612;BME280;7392;52.078;11.650;2023-06-10T06:50:34;101053.28;;;17.54;90.57
14612;BME280;7392;52.078;11.650;2023-06-10T06:53:02;101063.84;;;17.61;91.15
14612;BME280;7392;52.078;11.650;2023-06-10T06:55:29;101054.66;;;17.69;91.27
14612;BME280;7392;52.078;11.650;2023-06-10T06:57:57;101060.78;;;17.74;90.56
14612;BME280;7392;52.078;11.650;2023-06-10T07:00:29;101056.19;;;17.80;90.10
14612;BME280;7392;52.078;11.650;2023-06-10T07:02:58;101065.91;;;17.87;89.86
14612;BME280;7392;52.078;11.650;2023-06-10T07:05:26;101067.56;;;17.91;89.38
14612;BME280;7392;52.078;11.650;2023-06-10T07:07:54;101054.84;;;17.98;89.86
14612;BME280;7392;52.078;11.650;2023-06-10T07:10:23;101062.59;;;18.08;90.10
14612;BME280;7392;52.078;11.650;2023-06-10T07:12:51;101060.56;;;18.17;90.11
14612;BME280;7392;52.078;11.650;2023-06-10T07:15:19;101065.63;;;18.27;89.58
14612;BME280;7392;52.078;11.650;2023-06-10T07:17:46;101051.03;;;18.36;89.70
14612;BME280;7392;52.078;11.650;2023-06-10T07:20:16;101069.50;;;18.48;89.52
14612;BME280;7392;52.078;11.650;2023-06-10T07:22:44;101061.16;;;18.58;88.78
14612;BME280;7392;52.078;11.650;2023-06-10T07:25:12;101069.78;;;18.69;88.28
14612;BME280;7392;52.078;11.650;2023-06-10T07:27:39;101070.31;;;18.80;87.92
14612;BME280;7392;52.078;11.650;2023-06-10T07:30:08;101061.94;;;18.91;87.78
14612;BME280;7392;52.078;11.650;2023-06-10T07:32:36;101071.31;;;19.06;88.24
14612;BME280;7392;52.078;11.650;2023-06-10T07:35:07;101061.97;;;19.18;87.06
14612;BME280;7392;52.078;11.650;2023-06-10T07:37:37;101053.56;;;19.29;86.91
14612;BME280;7392;52.078;11.650;2023-06-10T07:40:05;101056.69;;;19.41;85.99
14612;BME280;7392;52.078;11.650;2023-06-10T07:42:35;101053.56;;;19.54;86.17
14612;BME280;7392;52.078;11.650;2023-06-10T07:45:03;101059.47;;;19.65;85.17
14612;BME280;7392;52.078;11.650;2023-06-10T07:47:34;101062.94;;;19.69;83.71
14612;BME280;7392;52.078;11.650;2023-06-10T07:50:02;101065.41;;;19.76;83.06
14612;BME280;7392;52.078;11.650;2023-06-10T07:52:29;101063.25;;;19.86;83.24
14612;BME280;7392;52.078;11.650;2023-06-10T07:54:58;101060.94;;;20.01;84.19
14612;BME280;7392;52.078;11.650;2023-06-10T07:57:26;101056.94;;;20.12;83.94
14612;BME280;7392;52.078;11.650;2023-06-10T07:59:54;101067.25;;;20.25;82.86
14612;BME280;7392;52.078;11.650;2023-06-10T08:02:24;101065.97;;;20.35;82.17
14612;BME280;7392;52.078;11.650;2023-06-10T08:04:51;101063.75;;;20.46;82.27
14612;BME280;7392;52.078;11.650;2023-06-10T08:07:19;101055.16;;;20.59;82.38
14612;BME280;7392;52.078;11.650;2023-06-10T08:09:47;101057.41;;;20.71;81.90
14612;BME280;7392;52.078;11.650;2023-06-10T08:12:16;101066.72;;;20.86;81.08
14612;BME280;7392;52.078;11.650;2023-06-10T08:14:45;101071.56;;;21.00;80.39
14612;BME280;7392;52.078;11.650;2023-06-10T08:17:12;101071.94;;;21.13;80.33
14612;BME280;7392;52.078;11.650;2023-06-10T08:19:40;101067.84;;;21.24;79.67
14612;BME280;7392;52.078;11.650;2023-06-10T08:22:07;101064.72;;;21.35;78.57
14612;BME280;7392;52.078;11.650;2023-06-10T08:24:37;101068.91;;;21.42;77.66
14612;BME280;7392;52.078;11.650;2023-06-10T08:27:05;101060.50;;;21.50;76.69
14612;BME280;7392;52.078;11.650;2023-06-10T08:29:34;101060.78;;;21.64;77.44
14612;BME280;7392;52.078;11.650;2023-06-10T08:32:02;101059.16;;;21.81;78.07
14612;BME280;7392;52.078;11.650;2023-06-10T08:34:32;101056.06;;;21.90;75.76
14612;BME280;7392;52.078;11.650;2023-06-10T08:37:00;101063.06;;;21.94;74.21
14612;BME280;7392;52.078;11.650;2023-06-10T08:39:28;101070.78;;;22.03;74.41
14612;BME280;7392;52.078;11.650;2023-06-10T08:42:04;101071.22;;;22.13;74.25
14612;BME280;7392;52.078;11.650;2023-06-10T08:44:37;101071.38;;;22.31;74.43
14612;BME280;7392;52.078;11.650;2023-06-10T08:47:09;101061.66;;;22.46;73.66
14612;BME280;7392;52.078;11.650;2023-06-10T08:49:41;101060.66;;;22.67;74.37
14612;BME280;7392;52.078;11.650;2023-06-10T08:52:14;101063.63;;;22.80;71.72
14612;BME280;7392;52.078;11.650;2023-06-10T08:54:43;101065.84;;;22.91;71.59
14612;BME280;7392;52.078;11.650;2023-06-10T08:57:15;101068.56;;;23.10;71.73
14612;BME280;7392;52.078;11.650;2023-06-10T08:59:45;101062.75;;;23.18;70.02
14612;BME280;7392;52.078;11.650;2023-06-10T09:02:13;101058.09;;;23.39;71.50
14612;BME280;7392;52.078;11.650;2023-06-10T09:04:42;101076.34;;;23.70;73.41
14612;BME280;7392;52.078;11.650;2023-06-10T09:07:10;101071.59;;;23.93;71.22
14612;BME280;7392;52.078;11.650;2023-06-10T09:09:38;101060.28;;;24.18;70.10
14612;BME280;7392;52.078;11.650;2023-06-10T09:12:07;101058.00;;;24.43;69.03
14612;BME280;7392;52.078;11.650;2023-06-10T09:14:34;101058.16;;;24.74;69.09
14612;BME280;7392;52.078;11.650;2023-06-10T09:17:05;101055.41;;;25.06;68.97
14612;BME280;7392;52.078;11.650;2023-06-10T09:19:33;101047.25;;;25.37;67.66
14612;BME280;7392;52.078;11.650;2023-06-10T09:22:03;101046.66;;;25.63;66.04
14612;BME280;7392;52.078;11.650;2023-06-10T09:24:31;101037.66;;;25.91;65.63
14612;BME280;7392;52.078;11.650;2023-06-10T09:27:03;101038.69;;;26.19;64.65
14612;BME280;7392;52.078;11.650;2023-06-10T09:29:31;101035.16;;;26.45;64.17
14612;BME280;7392;52.078;11.650;2023-06-10T09:31:59;101046.03;;;26.74;63.98
14612;BME280;7392;52.078;11.650;2023-06-10T09:34:28;101037.44;;;26.95;61.25
14612;BME280;7392;52.078;11.650;2023-06-10T09:36:55;101034.25;;;27.15;59.89
14612;BME280;7392;52.078;11.650;2023-06-10T09:39:23;101038.50;;;27.47;62.41
14612;BME280;7392;52.078;11.650;2023-06-10T09:41:51;101029.84;;;27.80;62.14
14612;BME280;7392;52.078;11.650;2023-06-10T09:44:19;101039.47;;;28.11;61.55
14612;BME280;7392;52.078;11.650;2023-06-10T09:46:49;101037.59;;;28.38;58.86
14612;BME280;7392;52.078;11.650;2023-06-10T09:49:17;101025.22;;;28.70;59.70
14612;BME280;7392;52.078;11.650;2023-06-10T09:51:50;101031.00;;;29.03;58.52
14612;BME280;7392;52.078;11.650;2023-06-10T09:54:19;101026.19;;;29.31;56.26
14612;BME280;7392;52.078;11.650;2023-06-10T09:56:48;101024.00;;;29.47;54.35
14612;BME280;7392;52.078;11.650;2023-06-10T09:59:16;101028.09;;;29.77;54.55
14612;BME280;7392;52.078;11.650;2023-06-10T10:01:43;101028.13;;;29.99;53.37
14612;BME280;7392;52.078;11.650;2023-06-10T10:04:12;101031.88;;;30.21;52.67
14612;BME280;7392;52.078;11.650;2023-06-10T10:06:40;101033.00;;;30.52;54.04
14612;BME280;7392;52.078;11.650;2023-06-10T10:09:09;101037.44;;;30.87;54.05
14612;BME280;7392;52.078;11.650;2023-06-10T10:11:37;101024.19;;;31.15;52.03
14612;BME280;7392;52.078;11.650;2023-06-10T10:14:05;101029.56;;;31.38;50.55
14612;BME280;7392;52.078;11.650;2023-06-10T10:16:37;101028.47;;;31.61;49.79
14612;BME280;7392;52.078;11.650;2023-06-10T10:19:08;101027.88;;;31.79;48.28
14612;BME280;7392;52.078;11.650;2023-06-10T10:21:41;101027.59;;;32.03;49.01
14612;BME280;7392;52.078;11.650;2023-06-10T10:24:16;101018.94;;;32.29;48.41
14612;BME280;7392;52.078;11.650;2023-06-10T10:26:46;101019.91;;;32.58;48.12
14612;BME280;7392;52.078;11.650;2023-06-10T10:29:20;101021.84;;;32.77;47.21
14612;BME280;7392;52.078;11.650;2023-06-10T10:31:51;101013.97;;;33.04;47.14
14612;BME280;7392;52.078;11.650;2023-06-10T10:34:26;101010.50;;;33.31;46.56
14612;BME280;7392;52.078;11.650;2023-06-10T10:36:55;101009.31;;;33.63;46.05
14612;BME280;7392;52.078;11.650;2023-06-10T10:39:25;101005.69;;;33.82;44.16
14612;BME280;7392;52.078;11.650;2023-06-10T10:41:55;101005.38;;;33.85;41.85
14612;BME280;7392;52.078;11.650;2023-06-10T10:44:23;101002.59;;;33.95;42.26
14612;BME280;7392;52.078;11.650;2023-06-10T10:46:52;101013.00;;;34.20;42.96
14612;BME280;7392;52.078;11.650;2023-06-10T10:49:22;101007.47;;;34.48;43.69
14612;BME280;7392;52.078;11.650;2023-06-10T10:51:56;101004.88;;;34.74;42.39
14612;BME280;7392;52.078;11.650;2023-06-10T10:54:33;101010.84;;;34.97;41.46
14612;BME280;7392;52.078;11.650;2023-06-10T10:57:14;100996.81;;;35.09;39.47
14612;BME280;7392;52.078;11.650;2023-06-10T10:59:53;101003.69;;;35.23;39.47
14612;BME280;7392;52.078;11.650;2023-06-10T11:02:37;101002.81;;;35.40;39.51
14612;BME280;7392;52.078;11.650;2023-06-10T11:05:10;101000.22;;;35.65;39.62
14612;BME280;7392;52.078;11.650;2023-06-10T11:07:39;100989.66;;;35.78;36.65
14612;BME280;7392;52.078;11.650;2023-06-10T11:10:09;100986.56;;;35.55;33.85
14612;BME280;7392;52.078;11.650;2023-06-10T11:12:41;101000.97;;;35.49;35.08
14612;BME280;7392;52.078;11.650;2023-06-10T11:15:09;100993.78;;;35.56;35.04
14612;BME280;7392;52.078;11.650;2023-06-10T11:17:37;100991.03;;;35.56;34.34
14612;BME280;7392;52.078;11.650;2023-06-10T11:20:05;100990.06;;;35.65;34.89
14612;BME280;7392;52.078;11.650;2023-06-10T11:22:58;100982.81;;;35.90;35.68
14612;BME280;7392;52.078;11.650;2023-06-10T11:25:39;100978.13;;;36.17;36.16
14612;BME280;7392;52.078;11.650;2023-06-10T11:28:17;100981.91;;;36.42;35.81
14612;BME280;7392;52.078;11.650;2023-06-10T11:30:45;100978.69;;;36.63;35.64
14612;BME280;7392;52.078;11.650;2023-06-10T11:33:15;100983.25;;;36.81;35.63
14612;BME280;7392;52.078;11.650;2023-06-10T11:35:44;100986.38;;;36.86;34.01
14612;BME280;7392;52.078;11.650;2023-06-10T11:38:13;100973.97;;;36.98;34.20
14612;BME280;7392;52.078;11.650;2023-06-10T11:40:48;100970.84;;;37.10;33.68
14612;BME280;7392;52.078;11.650;2023-06-10T11:43:17;100976.41;;;37.18;33.21
14612;BME280;7392;52.078;11.650;2023-06-10T11:45:45;100967.78;;;37.21;32.91
14612;BME280;7392;52.078;11.650;2023-06-10T11:48:12;100968.47;;;37.39;33.77
14612;BME280;7392;52.078;11.650;2023-06-10T11:50:40;100958.59;;;37.61;34.11
14612;BME280;7392;52.078;11.650;2023-06-10T11:53:08;100965.34;;;37.75;33.87
14612;BME280;7392;52.078;11.650;2023-06-10T11:55:42;100957.13;;;37.98;34.16
14612;BME280;7392;52.078;11.650;2023-06-10T11:58:15;100955.16;;;38.24;33.84
14612;BME280;7392;52.078;11.650;2023-06-10T12:00:44;100954.44;;;38.30;32.95
14612;BME280;7392;52.078;11.650;2023-06-10T12:03:13;100953.03;;;38.34;31.62
14612;BME280;7392;52.078;11.650;2023-06-10T12:05:54;100953.31;;;38.47;31.75
14612;BME280;7392;52.078;11.650;2023-06-10T12:08:22;100952.72;;;38.60;32.08
14612;BME280;7392;52.078;11.650;2023-06-10T12:10:50;100949.22;;;38.66;31.32
14612;BME280;7392;52.078;11.650;2023-06-10T12:13:20;100949.41;;;38.65;31.32
14612;BME280;7392;52.078;11.650;2023-06-10T12:15:49;100951.38;;;38.48;30.50
14612;BME280;7392;52.078;11.650;2023-06-10T12:18:18;100949.44;;;38.57;31.50
14612;BME280;7392;52.078;11.650;2023-06-10T12:20:46;100947.63;;;38.41;31.34
14612;BME280;7392;52.078;11.650;2023-06-10T12:23:15;100951.03;;;38.03;33.50
14612;BME280;7392;52.078;11.650;2023-06-10T12:25:50;100943.53;;;37.72;36.20
14612;BME280;7392;52.078;11.650;2023-06-10T12:28:22;100940.75;;;37.56;35.75
14612;BME280;7392;52.078;11.650;2023-06-10T12:30:50;100941.44;;;37.00;33.22
14612;BME280;7392;52.078;11.650;2023-06-10T12:33:19;100941.75;;;36.73;34.57
14612;BME280;7392;52.078;11.650;2023-06-10T12:35:48;100940.13;;;36.62;35.18
14612;BME280;7392;52.078;11.650;2023-06-10T12:38:21;100938.03;;;36.47;36.30
14612;BME280;7392;52.078;11.650;2023-06-10T12:40:51;100937.16;;;36.39;35.99
14612;BME280;7392;52.078;11.650;2023-06-10T12:43:19;100935.13;;;36.14;36.79
14612;BME280;7392;52.078;11.650;2023-06-10T12:45:49;100924.66;;;35.92;37.20
14612;BME280;7392;52.078;11.650;2023-06-10T12:48:18;100915.31;;;35.58;36.85
14612;BME280;7392;52.078;11.650;2023-06-10T12:50:51;100906.22;;;35.40;36.24
14612;BME280;7392;52.078;11.650;2023-06-10T12:53:20;100911.63;;;35.50;36.32
14612;BME280;7392;52.078;11.650;2023-06-10T12:55:49;100911.31;;;35.09;34.29
14612;BME280;7392;52.078;11.650;2023-06-10T12:58:19;100898.03;;;34.58;34.12
14612;BME280;7392;52.078;11.650;2023-06-10T13:00:48;100895.47;;;34.01;33.71